createdAt,value
2022-08-18T00:00:05.049Z,23.42
2022-08-18T00:01:05.072Z,23.40
2022-08-18T00:02:05.128Z,23.44
2022-08-18T00:03:07.420Z,23.42
2022-08-18T00:04:14.778Z,23.47
2022-08-18T00:05:05.173Z,23.39
2022-08-18T00:06:05.198Z,23.32
2022-08-18T00:07:05.216Z,23.33
2022-08-18T00:08:05.255Z,23.34
2022-08-18T00:09:05.271Z,23.42
2022-08-18T00:10:05.291Z,23.33
2022-08-18T00:11:05.330Z,23.37
2022-08-18T00:12:05.340Z,23.34
2022-08-18T00:13:05.360Z,23.37
2022-08-18T00:14:05.386Z,23.44
2022-08-18T00:15:05.409Z,23.29
2022-08-18T00:16:05.435Z,23.21
2022-08-18T00:17:05.457Z,23.29
2022-08-18T00:18:05.482Z,23.23
2022-08-18T00:19:09.253Z,23.20
2022-08-18T00:20:05.529Z,23.20
2022-08-18T00:21:05.552Z,23.18
2022-08-18T00:22:05.579Z,23.29
2022-08-18T00:23:05.600Z,23.17
2022-08-18T00:24:05.625Z,23.21
2022-08-18T00:25:05.649Z,23.26
2022-08-18T00:26:05.675Z,23.17
2022-08-18T00:27:05.698Z,23.17
2022-08-18T00:28:05.721Z,23.20
2022-08-18T00:29:05.744Z,23.13
2022-08-18T00:30:05.774Z,23.08
2022-08-18T00:31:05.793Z,23.13
2022-08-18T00:32:05.823Z,23.14
2022-08-18T00:33:05.842Z,23.07
2022-08-18T00:34:05.871Z,23.02
2022-08-18T00:35:05.889Z,23.01
2022-08-18T00:36:05.912Z,23.06
2022-08-18T00:37:05.938Z,22.99
2022-08-18T00:38:05.961Z,22.98
2022-08-18T00:39:05.982Z,22.95
2022-08-18T00:40:06.064Z,22.92
2022-08-18T00:41:06.033Z,22.92
2022-08-18T00:42:06.057Z,22.96
2022-08-18T00:43:06.079Z,23.02
2022-08-18T00:44:06.103Z,22.93
2022-08-18T00:45:06.127Z,22.95
2022-08-18T00:46:06.152Z,22.98
2022-08-18T00:47:06.177Z,22.93
2022-08-18T00:48:06.200Z,22.92
2022-08-18T00:49:06.221Z,22.95
2022-08-18T00:50:06.247Z,22.98
2022-08-18T00:51:06.271Z,22.89
2022-08-18T00:52:06.293Z,22.95
2022-08-18T00:53:06.317Z,22.92
2022-08-18T00:54:06.340Z,22.86
2022-08-18T00:55:06.364Z,22.83
2022-08-18T00:56:06.390Z,22.83
2022-08-18T00:57:06.414Z,22.89
2022-08-18T00:58:06.438Z,22.91
2022-08-18T00:59:06.457Z,22.80
2022-08-18T01:00:06.483Z,22.77
2022-08-18T01:01:06.596Z,22.84
2022-08-18T01:02:06.532Z,22.77
2022-08-18T01:03:06.555Z,22.76
2022-08-18T01:04:06.581Z,22.74
2022-08-18T01:05:06.602Z,22.78
2022-08-18T01:06:06.626Z,22.80
2022-08-18T01:07:06.649Z,22.77
2022-08-18T01:08:06.672Z,22.80
2022-08-18T01:09:06.696Z,22.76
2022-08-18T01:10:06.720Z,22.76
2022-08-18T01:11:06.743Z,22.68
2022-08-18T01:12:12.468Z,22.70
2022-08-18T01:13:06.791Z,22.68
2022-08-18T01:14:06.817Z,22.70
2022-08-18T01:15:06.838Z,22.68
2022-08-18T01:16:06.861Z,22.73
2022-08-18T01:17:06.889Z,22.63
2022-08-18T01:18:06.909Z,22.61
2022-08-18T01:19:06.934Z,22.61
2022-08-18T01:20:06.955Z,22.58
2022-08-18T01:21:06.979Z,22.61
2022-08-18T01:22:07.007Z,22.61
2022-08-18T01:23:07.028Z,22.61
2022-08-18T01:24:07.052Z,22.58
2022-08-18T01:25:07.076Z,22.62
2022-08-18T01:26:07.098Z,22.61
2022-08-18T01:27:07.121Z,22.62
2022-08-18T01:28:07.145Z,22.59
2022-08-18T01:29:07.170Z,22.65
2022-08-18T01:30:07.205Z,22.59
2022-08-18T01:31:07.221Z,22.62
2022-08-18T01:32:07.252Z,22.59
2022-08-18T01:33:07.270Z,22.58
2022-08-18T01:34:07.288Z,22.55
2022-08-18T01:35:07.308Z,22.59
2022-08-18T01:36:07.333Z,22.67
2022-08-18T01:37:07.364Z,22.62
2022-08-18T01:38:07.387Z,22.61
2022-08-18T01:39:07.405Z,22.67
2022-08-18T01:41:24.576Z,22.68
2022-08-18T01:41:26.522Z,22.70
2022-08-18T01:42:07.626Z,22.70
2022-08-18T01:43:07.499Z,22.63
2022-08-18T01:44:07.523Z,22.71
2022-08-18T01:45:07.548Z,22.65
2022-08-18T01:46:07.572Z,22.65
2022-08-18T01:47:07.594Z,22.78
2022-08-18T01:48:07.617Z,22.71
2022-08-18T01:49:07.641Z,22.71
2022-08-18T01:50:07.666Z,22.71
2022-08-18T01:51:07.687Z,22.70
2022-08-18T01:52:07.714Z,22.70
2022-08-18T01:53:07.741Z,22.70
2022-08-18T01:54:07.769Z,22.67
2022-08-18T01:55:07.785Z,22.62
2022-08-18T01:56:07.810Z,22.61
2022-08-18T01:57:07.833Z,22.55
2022-08-18T01:58:07.858Z,22.55
2022-08-18T01:59:07.877Z,22.59
2022-08-18T02:00:07.904Z,22.62
2022-08-18T02:01:07.928Z,22.61
2022-08-18T02:02:08.013Z,22.61
2022-08-18T02:03:07.972Z,22.56
2022-08-18T02:04:33.346Z,22.59
2022-08-18T02:05:08.022Z,22.56
2022-08-18T02:06:08.044Z,22.47
2022-08-18T02:07:08.071Z,22.44
2022-08-18T02:08:08.091Z,22.49
2022-08-18T02:09:08.115Z,22.47
2022-08-18T02:10:12.249Z,22.38
2022-08-18T02:11:08.161Z,22.43
2022-08-18T02:12:08.184Z,22.36
2022-08-18T02:13:08.208Z,22.36
2022-08-18T02:14:08.236Z,22.33
2022-08-18T02:15:08.258Z,22.31
2022-08-18T02:16:08.278Z,22.34
2022-08-18T02:17:08.306Z,22.34
2022-08-18T02:18:08.328Z,22.28
2022-08-18T02:19:08.351Z,22.25
2022-08-18T02:20:08.376Z,22.19
2022-08-18T02:21:10.219Z,22.25
2022-08-18T02:22:08.469Z,22.22
2022-08-18T02:23:08.443Z,22.22
2022-08-18T02:24:08.470Z,22.12
2022-08-18T02:25:08.490Z,22.10
2022-08-18T02:26:08.516Z,22.15
2022-08-18T02:27:08.537Z,22.10
2022-08-18T02:28:08.559Z,22.18
2022-08-18T02:29:08.586Z,22.04
2022-08-18T02:30:08.609Z,22.03
2022-08-18T02:31:08.628Z,22.07
2022-08-18T02:32:08.654Z,22.06
2022-08-18T02:33:08.678Z,22.07
2022-08-18T02:34:08.701Z,21.99
2022-08-18T02:35:12.060Z,21.89
2022-08-18T02:36:08.746Z,22.00
2022-08-18T02:37:13.131Z,22.01
2022-08-18T02:38:08.794Z,21.92
2022-08-18T02:39:08.816Z,21.88
2022-08-18T02:40:08.911Z,21.88
2022-08-18T02:41:08.864Z,21.81
2022-08-18T02:42:08.887Z,21.84
2022-08-18T02:43:08.912Z,21.80
2022-08-18T02:44:08.932Z,21.74
2022-08-18T02:45:09.736Z,21.70
2022-08-18T02:46:08.981Z,21.66
2022-08-18T02:47:09.003Z,21.65
2022-08-18T02:48:09.026Z,21.65
2022-08-18T02:49:09.053Z,21.66
2022-08-18T02:50:10.909Z,21.60
2022-08-18T02:51:09.096Z,21.63
2022-08-18T02:52:09.118Z,21.53
2022-08-18T02:53:09.158Z,21.59
2022-08-18T02:54:09.166Z,21.48
2022-08-18T02:55:09.210Z,21.53
2022-08-18T02:56:09.214Z,21.45
2022-08-18T02:57:09.237Z,21.41
2022-08-18T02:58:09.259Z,21.43
2022-08-18T02:59:09.282Z,21.44
2022-08-18T03:00:09.304Z,21.38
2022-08-18T03:01:09.398Z,21.32
2022-08-18T03:02:09.351Z,21.28
2022-08-18T03:03:09.373Z,21.35
2022-08-18T03:04:09.396Z,21.38
2022-08-18T03:05:10.819Z,21.32
2022-08-18T03:06:09.445Z,21.20
2022-08-18T03:07:09.464Z,21.23
2022-08-18T03:08:09.489Z,21.20
2022-08-18T03:09:09.512Z,21.23
2022-08-18T03:10:31.650Z,21.23
2022-08-18T03:11:09.560Z,21.25
2022-08-18T03:12:09.580Z,21.15
2022-08-18T03:13:09.602Z,21.17
2022-08-18T03:14:11.405Z,21.11
2022-08-18T03:15:09.649Z,21.05
2022-08-18T03:16:09.672Z,21.07
2022-08-18T03:17:09.693Z,21.07
2022-08-18T03:18:09.719Z,21.04
2022-08-18T03:19:09.741Z,21.00
2022-08-18T03:20:09.764Z,20.98
2022-08-18T03:21:09.787Z,21.04
2022-08-18T03:22:27.531Z,20.96
2022-08-18T03:23:10.181Z,20.93
2022-08-18T03:24:10.628Z,20.96
2022-08-18T03:25:09.883Z,20.96
2022-08-18T03:26:09.901Z,20.89
2022-08-18T03:27:09.923Z,20.83
2022-08-18T03:28:09.945Z,20.92
2022-08-18T03:29:09.969Z,20.82
2022-08-18T03:30:11.267Z,20.82
2022-08-18T03:31:10.014Z,20.80
2022-08-18T03:32:10.037Z,20.78
2022-08-18T03:33:10.060Z,20.80
2022-08-18T03:34:10.082Z,20.77
2022-08-18T03:35:10.104Z,20.71
2022-08-18T03:36:10.128Z,20.67
2022-08-18T03:37:10.153Z,20.66
2022-08-18T03:38:10.175Z,20.66
2022-08-18T03:39:10.196Z,20.64
2022-08-18T03:40:10.280Z,20.63
2022-08-18T03:41:10.243Z,20.58
2022-08-18T03:42:10.264Z,20.58
2022-08-18T03:43:23.769Z,20.59
2022-08-18T03:44:10.314Z,20.58
2022-08-18T03:45:13.169Z,20.53
2022-08-18T03:46:10.356Z,20.52
2022-08-18T03:47:10.376Z,20.50
2022-08-18T03:48:10.400Z,20.48
2022-08-18T03:49:10.424Z,20.50
2022-08-18T03:50:10.447Z,20.44
2022-08-18T03:51:10.468Z,20.49
2022-08-18T03:52:10.492Z,20.44
2022-08-18T03:53:10.516Z,20.42
2022-08-18T03:54:10.538Z,20.44
2022-08-18T03:55:10.564Z,20.39
2022-08-18T03:56:10.581Z,20.42
2022-08-18T03:57:10.620Z,20.48
2022-08-18T03:58:10.627Z,20.36
2022-08-18T03:59:10.653Z,20.32
2022-08-18T04:00:10.674Z,20.30
2022-08-18T04:01:10.735Z,20.30
2022-08-18T04:02:10.716Z,20.37
2022-08-18T04:03:10.741Z,20.33
2022-08-18T04:04:10.762Z,20.26
2022-08-18T04:05:10.786Z,20.21
2022-08-18T04:06:12.637Z,20.22
2022-08-18T04:07:10.830Z,20.27
2022-08-18T04:08:10.853Z,20.24
2022-08-18T04:09:10.874Z,20.27
2022-08-18T04:10:16.248Z,20.26
2022-08-18T04:11:10.921Z,20.15
2022-08-18T04:12:10.946Z,20.24
2022-08-18T04:13:10.964Z,20.24
2022-08-18T04:14:10.989Z,20.27
2022-08-18T04:15:11.010Z,20.11
2022-08-18T04:16:11.035Z,20.15
2022-08-18T04:17:11.061Z,20.15
2022-08-18T04:18:11.285Z,20.24
2022-08-18T04:19:11.101Z,20.12
2022-08-18T04:20:11.121Z,20.12
2022-08-18T04:21:11.165Z,20.17
2022-08-18T04:22:11.169Z,20.17
2022-08-18T04:23:11.190Z,20.14
2022-08-18T04:24:11.213Z,20.12
2022-08-18T04:25:11.237Z,20.17
2022-08-18T04:26:11.259Z,20.17
2022-08-18T04:27:11.284Z,20.17
2022-08-18T04:28:11.303Z,20.14
2022-08-18T04:29:11.326Z,20.22
2022-08-18T04:30:11.351Z,20.14
2022-08-18T04:31:11.371Z,20.12
2022-08-18T04:32:11.395Z,20.12
2022-08-18T04:33:11.414Z,20.15
2022-08-18T04:34:11.440Z,20.21
2022-08-18T04:35:13.969Z,20.15
2022-08-18T04:36:11.483Z,20.19
2022-08-18T04:37:11.505Z,20.15
2022-08-18T04:38:11.535Z,20.17
2022-08-18T04:39:11.551Z,20.14
2022-08-18T04:40:12.779Z,20.27
2022-08-18T04:41:11.598Z,20.24
2022-08-18T04:42:11.621Z,20.19
2022-08-18T04:43:11.643Z,20.24
2022-08-18T04:44:11.664Z,20.27
2022-08-18T04:45:11.688Z,20.24
2022-08-18T04:46:11.710Z,20.32
2022-08-18T04:47:11.731Z,20.34
2022-08-18T04:48:11.754Z,20.40
2022-08-18T04:49:11.777Z,20.39
2022-08-18T04:50:11.802Z,20.46
2022-08-18T04:51:11.824Z,20.49
2022-08-18T04:52:26.720Z,20.49
2022-08-18T04:53:11.867Z,20.42
2022-08-18T04:54:11.891Z,20.50
2022-08-18T04:55:11.920Z,20.53
2022-08-18T04:56:11.937Z,20.53
2022-08-18T04:57:11.960Z,20.59
2022-08-18T04:58:11.983Z,20.66
2022-08-18T04:59:12.004Z,20.60
2022-08-18T05:00:12.036Z,20.70
2022-08-18T05:01:12.067Z,20.67
2022-08-18T05:02:14.762Z,20.77
2022-08-18T05:03:12.097Z,20.77
2022-08-18T05:04:12.119Z,20.77
2022-08-18T05:05:12.143Z,20.77
2022-08-18T05:06:12.196Z,20.78
2022-08-18T05:07:12.207Z,20.83
2022-08-18T05:08:12.220Z,20.96
2022-08-18T05:09:12.234Z,20.89
2022-08-18T05:10:12.261Z,20.96
2022-08-18T05:11:12.282Z,21.01
2022-08-18T05:12:12.304Z,21.04
2022-08-18T05:13:12.334Z,21.07
2022-08-18T05:14:12.353Z,21.05
2022-08-18T05:15:12.374Z,21.20
2022-08-18T05:16:16.802Z,21.15
2022-08-18T05:17:12.421Z,21.19
2022-08-18T05:18:13.900Z,21.17
2022-08-18T05:19:12.465Z,21.25
2022-08-18T05:20:12.488Z,21.20
2022-08-18T05:21:12.514Z,21.25
2022-08-18T05:22:12.539Z,21.22
2022-08-18T05:23:12.567Z,21.20
2022-08-18T05:24:12.584Z,21.23
2022-08-18T05:25:12.605Z,21.29
2022-08-18T05:26:12.629Z,21.30
2022-08-18T05:27:12.652Z,21.35
2022-08-18T05:28:12.688Z,21.38
2022-08-18T05:29:18.028Z,21.33
2022-08-18T05:30:12.724Z,21.33
2022-08-18T05:31:13.966Z,21.48
2022-08-18T05:32:30.289Z,21.51
2022-08-18T05:33:12.793Z,21.58
2022-08-18T05:34:12.819Z,21.53
2022-08-18T05:35:12.852Z,21.53
2022-08-18T05:36:12.864Z,21.51
2022-08-18T05:37:12.887Z,21.62
2022-08-18T05:38:12.913Z,21.70
2022-08-18T05:39:12.933Z,21.68
2022-08-18T05:40:13.013Z,21.74
2022-08-18T05:41:14.047Z,21.80
2022-08-18T05:42:13.006Z,21.85
2022-08-18T05:43:13.040Z,21.88
2022-08-18T05:44:13.052Z,21.89
2022-08-18T05:45:13.075Z,21.96
2022-08-18T05:46:13.111Z,21.96
2022-08-18T05:47:13.124Z,22.03
2022-08-18T05:48:13.145Z,22.06
2022-08-18T05:49:13.169Z,22.03
2022-08-18T05:50:13.193Z,22.12
2022-08-18T05:51:13.218Z,22.21
2022-08-18T05:52:13.242Z,22.23
2022-08-18T05:53:14.376Z,22.28
2022-08-18T05:54:13.293Z,22.34
2022-08-18T05:55:13.317Z,22.37
2022-08-18T05:56:13.339Z,22.33
2022-08-18T05:57:13.361Z,22.41
2022-08-18T05:58:13.386Z,22.40
2022-08-18T05:59:13.409Z,22.59
2022-08-18T06:00:13.434Z,22.59
2022-08-18T06:01:13.459Z,22.53
2022-08-18T06:02:13.483Z,22.70
2022-08-18T06:03:13.557Z,22.76
2022-08-18T06:04:13.532Z,22.80
2022-08-18T06:05:13.554Z,22.89
2022-08-18T06:06:14.306Z,22.92
2022-08-18T06:07:13.603Z,22.95
2022-08-18T06:08:13.628Z,23.01
2022-08-18T06:09:13.656Z,23.08
2022-08-18T06:10:13.681Z,23.23
2022-08-18T06:11:22.184Z,23.23
2022-08-18T06:12:13.732Z,23.37
2022-08-18T06:13:13.751Z,23.42
2022-08-18T06:14:13.776Z,23.48
2022-08-18T06:15:13.802Z,23.62
2022-08-18T06:16:13.826Z,23.66
2022-08-18T06:17:13.851Z,23.79
2022-08-18T06:18:13.878Z,23.81
2022-08-18T06:19:13.900Z,23.85
2022-08-18T06:20:13.926Z,23.96
2022-08-18T06:21:13.950Z,24.00
2022-08-18T06:22:13.981Z,24.03
2022-08-18T06:23:14.001Z,24.14
2022-08-18T06:24:14.025Z,24.16
2022-08-18T06:25:14.052Z,24.13
2022-08-18T06:26:14.077Z,24.21
2022-08-18T06:27:14.100Z,24.26
2022-08-18T06:28:14.129Z,24.41
2022-08-18T06:29:14.157Z,24.43
2022-08-18T06:30:14.181Z,24.58
2022-08-18T06:31:14.204Z,24.56
2022-08-18T06:32:14.229Z,24.71
2022-08-18T06:33:14.252Z,24.82
2022-08-18T06:34:14.291Z,24.84
2022-08-18T06:35:14.312Z,24.82
2022-08-18T06:36:14.330Z,24.93
2022-08-18T06:37:14.357Z,24.99
2022-08-18T06:38:14.390Z,25.04
2022-08-18T06:39:14.409Z,25.18
2022-08-18T06:40:14.497Z,25.26
2022-08-18T06:41:42.263Z,25.31
2022-08-18T06:42:14.488Z,25.31
2022-08-18T06:43:14.514Z,25.33
2022-08-18T06:44:14.538Z,25.41
2022-08-18T06:45:14.566Z,25.52
2022-08-18T06:46:14.591Z,25.54
2022-08-18T06:47:14.615Z,25.59
2022-08-18T06:48:15.105Z,25.66
2022-08-18T06:49:14.679Z,25.77
2022-08-18T06:50:14.695Z,25.68
2022-08-18T06:51:14.721Z,25.74
2022-08-18T06:52:14.746Z,25.80
2022-08-18T06:53:25.908Z,25.81
2022-08-18T06:54:14.799Z,25.86
2022-08-18T06:55:14.824Z,25.95
2022-08-18T06:56:25.898Z,25.96
2022-08-18T06:57:14.886Z,25.98
2022-08-18T06:58:14.904Z,26.06
2022-08-18T06:59:14.931Z,26.07
2022-08-18T07:00:14.957Z,26.08
2022-08-18T07:01:15.765Z,26.24
2022-08-18T07:02:15.009Z,26.24
2022-08-18T07:03:15.040Z,26.22
2022-08-18T07:04:15.063Z,26.31
2022-08-18T07:05:15.092Z,26.30
2022-08-18T07:06:15.116Z,26.37
2022-08-18T07:07:15.141Z,26.49
2022-08-18T07:08:15.170Z,26.46
2022-08-18T07:09:15.194Z,26.66
2022-08-18T07:10:15.222Z,26.63
2022-08-18T07:11:15.252Z,26.70
2022-08-18T07:12:15.276Z,26.78
2022-08-18T07:13:15.301Z,26.82
2022-08-18T07:14:16.920Z,26.91
2022-08-18T07:15:15.354Z,26.89
2022-08-18T07:16:15.846Z,26.97
2022-08-18T07:17:15.408Z,26.96
2022-08-18T07:18:15.436Z,27.04
2022-08-18T07:19:15.462Z,27.07
2022-08-18T07:20:15.490Z,27.03
2022-08-18T07:21:15.516Z,27.11
2022-08-18T07:22:16.852Z,27.13
2022-08-18T07:23:15.571Z,27.07
2022-08-18T07:24:25.013Z,27.08
2022-08-18T07:25:15.624Z,27.08
2022-08-18T07:26:15.941Z,27.05
2022-08-18T07:27:15.678Z,27.07
2022-08-18T07:28:15.706Z,27.08
2022-08-18T07:29:15.734Z,27.01
2022-08-18T07:30:15.943Z,27.01
2022-08-18T07:31:17.202Z,27.01
2022-08-18T07:32:15.962Z,27.01
2022-08-18T07:33:15.842Z,27.00
2022-08-18T07:34:15.872Z,26.98
2022-08-18T07:35:15.896Z,26.97
2022-08-18T07:36:15.921Z,26.98
2022-08-18T07:37:15.948Z,27.01
2022-08-18T07:38:40.682Z,27.05
2022-08-18T07:39:16.004Z,27.08
2022-08-18T07:40:16.130Z,27.07
2022-08-18T07:41:16.068Z,27.13
2022-08-18T07:42:16.082Z,27.19
2022-08-18T07:43:16.107Z,27.20
2022-08-18T07:44:16.136Z,27.29
2022-08-18T07:45:16.166Z,27.23
2022-08-18T07:46:16.190Z,27.43
2022-08-18T07:47:16.217Z,27.37
2022-08-18T07:48:36.884Z,27.45
2022-08-18T07:49:19.282Z,27.43
2022-08-18T07:50:27.300Z,27.47
2022-08-18T07:51:17.286Z,27.45
2022-08-18T07:52:36.195Z,27.64
2022-08-18T07:53:16.380Z,27.64
2022-08-18T07:54:37.667Z,27.68
2022-08-18T07:55:16.434Z,27.66
2022-08-18T07:56:16.461Z,27.73
2022-08-18T07:57:19.878Z,27.73
2022-08-18T07:58:16.517Z,27.72
2022-08-18T07:59:16.542Z,27.79
2022-08-18T08:00:18.884Z,27.78
2022-08-18T08:01:16.731Z,27.82
2022-08-18T08:02:16.675Z,27.85
2022-08-18T08:03:16.653Z,27.94
2022-08-18T08:04:26.027Z,27.94
2022-08-18T08:05:16.709Z,28.01
2022-08-18T08:06:16.735Z,28.04
2022-08-18T08:07:25.157Z,28.00
2022-08-18T08:08:16.788Z,28.04
2022-08-18T08:09:16.813Z,28.03
2022-08-18T08:10:16.844Z,28.12
2022-08-18T08:11:16.868Z,28.04
2022-08-18T08:12:16.900Z,28.09
2022-08-18T08:13:22.337Z,28.15
2022-08-18T08:14:16.955Z,28.12
2022-08-18T08:15:16.983Z,28.12
2022-08-18T08:16:17.025Z,28.20
2022-08-18T08:17:17.041Z,28.20
2022-08-18T08:18:17.065Z,28.25
2022-08-18T08:19:17.091Z,28.28
2022-08-18T08:20:17.121Z,28.25
2022-08-18T08:21:17.148Z,28.35
2022-08-18T08:22:17.178Z,28.33
2022-08-18T08:23:17.213Z,28.43
2022-08-18T08:24:17.237Z,28.43
2022-08-18T08:25:42.720Z,28.53
2022-08-18T08:26:17.287Z,28.50
2022-08-18T08:27:17.314Z,28.59
2022-08-18T08:28:17.343Z,28.55
2022-08-18T08:29:17.374Z,28.65
2022-08-18T08:30:17.400Z,28.65
2022-08-18T08:31:36.113Z,28.78
2022-08-18T08:32:17.456Z,28.70
2022-08-18T08:33:17.484Z,28.75
2022-08-18T08:34:17.510Z,28.78
2022-08-18T08:35:49.362Z,28.77
2022-08-18T08:36:17.574Z,28.84
2022-08-18T08:37:17.594Z,28.89
2022-08-18T08:38:39.850Z,28.96
2022-08-18T08:39:17.652Z,28.93
2022-08-18T08:40:17.754Z,28.90
2022-08-18T08:41:17.708Z,28.94
2022-08-18T08:42:30.345Z,29.09
2022-08-18T08:43:17.763Z,29.09
2022-08-18T08:44:17.793Z,29.07
2022-08-18T08:45:17.823Z,29.21
2022-08-18T08:46:17.849Z,29.13
2022-08-18T08:47:23.116Z,29.32
2022-08-18T08:48:17.905Z,29.32
2022-08-18T08:49:17.935Z,29.34
2022-08-18T08:50:17.961Z,29.43
2022-08-18T08:51:17.990Z,29.49
2022-08-18T08:52:19.012Z,29.47
2022-08-18T08:53:18.049Z,29.62
2022-08-18T08:54:18.080Z,29.65
2022-08-18T08:55:18.103Z,29.64
2022-08-18T08:56:18.134Z,29.77
2022-08-18T08:57:18.162Z,29.80
2022-08-18T08:58:18.193Z,29.86
2022-08-18T08:59:18.218Z,29.84
2022-08-18T09:00:18.328Z,29.98
2022-08-18T09:01:18.309Z,30.02
2022-08-18T09:02:37.892Z,30.02
2022-08-18T09:03:18.335Z,30.20
2022-08-18T09:04:18.366Z,30.13
2022-08-18T09:05:18.394Z,30.20
2022-08-18T09:06:18.423Z,30.31
2022-08-18T09:07:18.454Z,30.29
2022-08-18T09:08:18.483Z,30.35
2022-08-18T09:09:18.510Z,30.38
2022-08-18T09:10:18.541Z,30.36
2022-08-18T09:11:18.569Z,30.44
2022-08-18T09:12:18.598Z,30.40
2022-08-18T09:13:18.628Z,30.56
2022-08-18T09:14:18.659Z,30.51
2022-08-18T09:15:18.687Z,30.58
2022-08-18T09:16:18.720Z,30.73
2022-08-18T09:17:18.748Z,30.74
2022-08-18T09:18:18.777Z,30.80
2022-08-18T09:19:18.806Z,30.76
2022-08-18T09:20:18.836Z,30.92
2022-08-18T09:21:18.864Z,30.91
2022-08-18T09:22:18.909Z,30.92
2022-08-18T09:23:18.925Z,30.86
2022-08-18T09:24:18.957Z,30.88
2022-08-18T09:25:18.985Z,30.91
2022-08-18T09:26:19.012Z,30.92
2022-08-18T09:27:19.060Z,30.89
2022-08-18T09:28:19.075Z,30.92
2022-08-18T09:29:19.102Z,30.98
2022-08-18T09:30:19.131Z,31.05
2022-08-18T09:31:19.585Z,31.11
2022-08-18T09:32:19.195Z,31.07
2022-08-18T09:33:19.596Z,31.15
2022-08-18T09:34:19.250Z,31.00
2022-08-18T09:35:19.279Z,31.17
2022-08-18T09:36:20.176Z,31.11
2022-08-18T09:37:19.339Z,31.17
2022-08-18T09:38:20.574Z,31.18
2022-08-18T09:39:20.561Z,31.28
2022-08-18T09:40:19.490Z,31.35
2022-08-18T09:41:19.504Z,31.32
2022-08-18T09:42:19.487Z,31.32
2022-08-18T09:43:20.250Z,31.44
2022-08-18T09:45:19.577Z,31.51
2022-08-18T09:46:19.605Z,31.54
2022-08-18T09:47:19.636Z,31.62
2022-08-18T09:49:19.697Z,31.70
2022-08-18T09:50:27.084Z,31.79
2022-08-18T09:50:37.344Z,31.70
2022-08-18T09:51:19.755Z,31.85
2022-08-18T09:52:19.817Z,31.81
2022-08-18T09:53:19.816Z,31.95
2022-08-18T09:54:20.832Z,31.97
2022-08-18T09:55:19.878Z,32.05
2022-08-18T09:56:28.729Z,32.07
2022-08-18T09:57:20.731Z,32.12
2022-08-18T09:58:19.970Z,32.22
2022-08-18T09:59:19.999Z,32.34
2022-08-18T10:01:20.115Z,32.39
2022-08-18T10:02:22.811Z,32.49
2022-08-18T10:03:25.539Z,32.48
2022-08-18T10:04:21.562Z,32.57
2022-08-18T10:05:20.223Z,32.56
2022-08-18T10:06:20.686Z,32.71
2022-08-18T10:07:20.333Z,32.67
2022-08-18T10:08:21.296Z,32.75
2022-08-18T10:09:36.077Z,32.71
2022-08-18T10:11:20.563Z,32.97
2022-08-18T10:12:20.415Z,33.04
2022-08-18T10:13:21.578Z,33.04
2022-08-18T10:14:20.471Z,33.05
2022-08-18T10:15:33.279Z,33.04
2022-08-18T10:16:20.525Z,32.98
2022-08-18T10:17:23.877Z,32.97
2022-08-18T10:18:20.591Z,33.04
2022-08-18T10:19:23.192Z,32.97
2022-08-18T10:20:25.842Z,33.04
2022-08-18T10:21:21.104Z,33.05
2022-08-18T10:22:20.715Z,33.10
2022-08-18T10:23:20.747Z,33.16
2022-08-18T10:24:36.890Z,33.16
2022-08-18T10:25:22.671Z,33.17
2022-08-18T10:26:20.855Z,33.39
2022-08-18T10:27:20.872Z,33.44
2022-08-18T10:28:20.901Z,33.58
2022-08-18T10:29:20.940Z,33.79
2022-08-18T10:30:20.967Z,33.85
2022-08-18T10:31:24.088Z,34.06
2022-08-18T10:32:21.033Z,34.14
2022-08-18T10:33:21.078Z,34.18
2022-08-18T10:34:21.099Z,34.47
2022-08-18T10:35:24.440Z,34.50
2022-08-18T10:36:21.168Z,34.62
2022-08-18T10:37:21.201Z,34.76
2022-08-18T10:38:21.239Z,34.81
2022-08-18T10:39:21.269Z,35.03
2022-08-18T10:40:21.547Z,35.19
2022-08-18T10:41:21.340Z,35.50
2022-08-18T10:42:21.373Z,35.68
2022-08-18T10:47:24.941Z,36.72
2022-08-18T10:48:24.443Z,36.88
2022-08-18T10:49:21.624Z,37.06
2022-08-18T10:50:21.660Z,37.19
2022-08-18T10:51:22.896Z,37.54
2022-08-18T10:52:21.735Z,37.66
2022-08-18T10:53:40.530Z,37.79
2022-08-18T10:54:21.810Z,37.90
2022-08-18T10:55:21.852Z,38.00
2022-08-18T10:56:26.833Z,38.09
2022-08-18T10:57:21.934Z,38.22
2022-08-18T10:58:23.940Z,38.31
2022-08-18T10:59:28.602Z,38.38
2022-08-18T11:00:22.040Z,38.58
2022-08-18T11:01:22.075Z,38.72
2022-08-18T11:02:22.115Z,38.91
2022-08-18T11:04:33.501Z,39.12
2022-08-18T11:05:22.231Z,39.23
2022-08-18T11:06:22.287Z,39.34
2022-08-18T11:07:22.305Z,39.56
2022-08-18T11:08:22.345Z,39.76
2022-08-18T11:09:22.388Z,39.80
2022-08-18T11:10:30.599Z,40.02
2022-08-18T11:12:22.501Z,40.23
2022-08-18T11:13:22.540Z,40.34
2022-08-18T11:14:22.581Z,40.55
2022-08-18T11:15:24.007Z,40.64
2022-08-18T11:16:22.660Z,41.03
2022-08-18T11:17:22.697Z,40.92
2022-08-18T11:18:22.741Z,41.20
2022-08-18T11:19:22.821Z,41.45
2022-08-18T11:20:22.827Z,41.55
2022-08-18T11:21:22.857Z,41.55
2022-08-18T11:22:32.062Z,41.61
2022-08-18T11:23:22.937Z,41.96
2022-08-18T11:24:22.978Z,42.15
2022-08-18T11:25:23.020Z,42.17
2022-08-18T11:26:23.062Z,42.14
2022-08-18T11:27:23.438Z,42.28
2022-08-18T11:28:30.265Z,42.36
2022-08-18T11:29:23.184Z,42.53
2022-08-18T11:30:30.360Z,42.46
2022-08-18T11:31:23.264Z,42.61
2022-08-18T11:32:23.306Z,42.75
2022-08-18T11:33:24.508Z,42.96
2022-08-18T11:34:23.388Z,42.96
2022-08-18T11:35:23.428Z,43.05
2022-08-18T11:36:23.470Z,43.12
2022-08-18T11:37:23.511Z,43.31
2022-08-18T11:38:23.747Z,43.31
2022-08-18T11:39:35.908Z,43.32
2022-08-18T11:41:02.225Z,43.24
2022-08-18T11:41:23.700Z,43.44
2022-08-18T11:42:25.204Z,43.51
2022-08-18T11:43:24.040Z,43.47
2022-08-18T11:44:23.801Z,43.56
2022-08-18T11:45:24.832Z,43.54
2022-08-18T11:46:28.233Z,43.72
2022-08-18T11:48:29.749Z,43.76
2022-08-18T11:49:26.407Z,43.87
2022-08-18T11:50:24.047Z,43.84
2022-08-18T11:51:24.660Z,43.92
2022-08-18T11:52:30.815Z,43.99
2022-08-18T11:53:24.261Z,44.02
2022-08-18T11:54:24.792Z,43.95
2022-08-18T11:55:25.040Z,43.57
2022-08-18T11:56:30.942Z,43.54
2022-08-18T11:57:24.334Z,43.47
2022-08-18T11:58:24.377Z,43.54
2022-08-18T11:59:24.416Z,43.28
2022-08-18T12:00:24.591Z,43.28
2022-08-18T12:01:24.516Z,42.92
2022-08-18T12:02:24.542Z,42.86
2022-08-18T12:03:24.581Z,42.40
2022-08-18T12:04:24.619Z,42.15
2022-08-18T12:05:24.664Z,41.73
2022-08-18T12:07:24.739Z,41.18
2022-08-18T12:08:54.584Z,41.04
2022-08-18T12:10:07.912Z,40.83
2022-08-18T12:10:26.118Z,40.51
2022-08-18T12:12:25.065Z,40.43
2022-08-18T12:13:24.980Z,40.42
2022-08-18T12:14:31.763Z,40.43
2022-08-18T12:15:25.552Z,40.36
2022-08-18T12:16:25.083Z,40.51
2022-08-18T12:17:25.124Z,40.55
2022-08-18T12:18:28.929Z,40.77
2022-08-18T12:19:25.269Z,40.93
2022-08-18T12:20:25.235Z,41.04
2022-08-18T12:21:25.273Z,41.08
2022-08-18T12:22:25.330Z,41.22
2022-08-18T12:23:25.348Z,41.32
2022-08-18T12:24:26.452Z,41.42
2022-08-18T12:25:25.825Z,41.53
2022-08-18T12:27:25.503Z,41.86
2022-08-18T12:28:28.239Z,42.06
2022-08-18T12:29:30.921Z,42.12
2022-08-18T12:30:26.140Z,42.17
2022-08-18T12:31:29.032Z,42.09
2022-08-18T12:32:56.146Z,42.21
2022-08-18T12:33:34.429Z,42.18
2022-08-18T12:34:26.592Z,42.12
2022-08-18T12:35:25.814Z,42.25
2022-08-18T12:36:26.867Z,42.34
2022-08-18T12:37:57.573Z,42.46
2022-08-18T12:38:25.934Z,42.51
2022-08-18T12:39:25.971Z,42.51
2022-08-18T12:40:26.460Z,42.51
2022-08-18T12:41:26.049Z,42.63
2022-08-18T12:42:26.089Z,42.58
2022-08-18T12:43:26.127Z,42.44
2022-08-18T12:44:27.236Z,42.51
2022-08-18T12:46:26.248Z,42.46
2022-08-18T12:47:26.286Z,42.32
2022-08-18T12:48:26.325Z,42.37
2022-08-18T12:49:26.916Z,42.36
2022-08-18T12:50:30.825Z,42.40
2022-08-18T12:51:30.515Z,42.34
2022-08-18T12:52:26.482Z,42.33
2022-08-18T12:53:30.805Z,42.34
2022-08-18T12:54:26.565Z,42.21
2022-08-18T12:55:26.601Z,42.28
2022-08-18T12:56:26.641Z,42.24
2022-08-18T12:57:33.287Z,42.28
2022-08-18T12:58:26.719Z,42.28
2022-08-18T12:59:26.771Z,42.37
2022-08-18T13:00:27.915Z,42.28
2022-08-18T13:01:27.047Z,42.39
2022-08-18T13:02:26.876Z,42.33
2022-08-18T13:03:27.375Z,42.40
2022-08-18T13:04:27.263Z,42.36
2022-08-18T13:05:27.536Z,42.32
2022-08-18T13:06:27.629Z,42.39